Time;durP1;ratioP1;P1;durP2;ratioP2;P2;SDS_P1;SDS_P2;PMS_P1;PMS_P2;Temp;Humidity;BMP_temperature;BMP_pressure;BME280_temperature;BME280_humidity;BME280_pressure;Samples;Min_cycle;Max_cycle;Signal;HPM_P1;HPM_P2
2022/09/29 00:00:22;;;;;;;0.90;0.90;;;;;5.30;94492.00;;;;5115027;28;20213;-62
2022/09/29 00:02:49;;;;;;;0.93;0.93;;;;;5.40;94491.00;;;;5114976;28;20195;-62
2022/09/29 00:05:16;;;;;;;0.73;0.73;;;;;5.20;94497.00;;;;5114472;28;20186;-60
2022/09/29 00:07:43;;;;;;;0.77;0.77;;;;;5.20;94486.00;;;;5114007;28;20645;-61
2022/09/29 00:10:10;;;;;;;0.93;0.93;;;;;5.30;94486.00;;;;5114882;28;20211;-62
2022/09/29 00:12:37;;;;;;;0.63;0.63;;;;;5.40;94484.00;;;;5114754;28;20227;-63
2022/09/29 00:15:07;;;;;;;0.63;0.63;;;;;5.40;94492.00;;;;5114757;28;20279;-64
2022/09/29 00:17:36;;;;;;;1.23;1.23;;;;;5.40;94488.00;;;;5114586;28;20194;-62
2022/09/29 00:20:03;;;;;;;1.00;1.00;;;;;5.40;94486.00;;;;5114523;28;20222;-63
2022/09/29 00:22:32;;;;;;;0.70;0.70;;;;;5.50;94480.00;;;;5114641;28;20206;-62
2022/09/29 00:25:00;;;;;;;0.67;0.67;;;;;5.50;94476.00;;;;5096724;28;20219;-61
2022/09/29 00:27:27;;;;;;;0.83;0.80;;;;;5.50;94476.00;;;;5114541;28;20208;-60
2022/09/29 00:29:53;;;;;;;0.70;0.70;;;;;5.50;94485.00;;;;5114490;28;20197;-59
2022/09/29 00:32:22;;;;;;;0.70;0.70;;;;;5.40;94486.00;;;;5114489;28;20828;-61
2022/09/29 00:34:50;;;;;;;0.83;0.83;;;;;5.50;94485.00;;;;5114459;28;20640;-60
2022/09/29 00:37:17;;;;;;;1.00;1.00;;;;;5.50;94479.00;;;;5096521;28;20209;-60
2022/09/29 00:39:43;;;;;;;0.60;0.60;;;;;5.50;94481.00;;;;5114268;28;20232;-61
2022/09/29 00:42:11;;;;;;;0.90;0.90;;;;;5.50;94484.00;;;;5114386;28;20228;-61
2022/09/29 00:45:03;;;;;;;0.50;0.50;;;;;5.50;94476.00;;;;5096232;28;20644;-61
2022/09/29 00:47:33;;;;;;;0.50;0.50;;;;;5.60;94481.00;;;;5114263;28;20186;-61
2022/09/29 00:50:10;;;;;;;0.80;0.80;;;;;5.60;94475.00;;;;5114239;28;20181;-63
2022/09/29 00:52:43;;;;;;;0.60;0.60;;;;;5.60;94484.00;;;;5114063;28;20220;-62
2022/09/29 00:55:14;;;;;;;0.90;0.90;;;;;5.50;94482.00;;;;5114046;28;20208;-59
2022/09/29 00:57:47;;;;;;;0.60;0.60;;;;;5.50;94478.00;;;;5113893;28;20193;-60
2022/09/29 01:00:16;;;;;;;0.73;0.73;;;;;5.50;94476.00;;;;5113959;28;20193;-60
2022/09/29 01:02:49;;;;;;;0.73;0.73;;;;;5.60;94470.00;;;;5113983;28;20240;-61
2022/09/29 01:05:20;;;;;;;0.70;0.70;;;;;5.70;94464.00;;;;5114449;28;20218;-64
2022/09/29 01:07:46;;;;;;;3.30;1.23;;;;;5.70;94461.00;;;;5114147;28;20198;-61
2022/09/29 01:10:16;;;;;;;0.60;0.60;;;;;5.70;94467.00;;;;5114097;28;20283;-64
2022/09/29 01:12:45;;;;;;;0.50;0.50;;;;;5.70;94466.00;;;;5096432;28;20218;-64
2022/09/29 01:15:13;;;;;;;0.87;0.87;;;;;5.60;94453.00;;;;5114286;28;20246;-65
2022/09/29 01:17:40;;;;;;;0.60;0.60;;;;;5.70;94461.00;;;;5114585;28;20194;-64
2022/09/29 01:20:12;;;;;;;0.70;0.70;;;;;5.70;94451.00;;;;5099651;28;20558;-64
2022/09/29 01:23:24;;;;;;;0.67;0.67;;;;;5.70;94454.00;;;;5096103;28;20261;-62
2022/09/29 01:26:22;;;;;;;0.77;0.77;;;;;5.60;94466.00;;;;5113839;28;20231;-62
2022/09/29 01:29:16;;;;;;;1.90;0.93;;;;;5.40;94465.00;;;;5113749;28;20290;-62
2022/09/29 01:31:52;;;;;;;0.67;0.67;;;;;5.30;94466.00;;;;5110503;28;20205;-61
2022/09/29 01:34:30;;;;;;;0.70;0.70;;;;;5.40;94470.00;;;;5114825;28;20188;-62
2022/09/29 01:37:05;;;;;;;0.93;0.80;;;;;5.50;94465.00;;;;5113716;28;20194;-62
2022/09/29 01:39:37;;;;;;;1.00;1.00;;;;;5.50;94464.00;;;;5113376;28;20243;-62
2022/09/29 01:42:10;;;;;;;0.60;0.60;;;;;5.60;94468.00;;;;5113390;28;20307;-62
2022/09/29 01:44:42;;;;;;;0.53;0.53;;;;;5.70;94458.00;;;;5113535;28;20275;-61
2022/09/29 01:47:12;;;;;;;0.70;0.70;;;;;5.80;94451.00;;;;5113453;28;20220;-61
2022/09/29 01:49:43;;;;;;;1.07;1.03;;;;;5.80;94464.00;;;;5095555;28;20233;-60
2022/09/29 01:52:13;;;;;;;0.67;0.67;;;;;5.80;94462.00;;;;5113332;28;20624;-62
2022/09/29 01:54:46;;;;;;;0.80;0.80;;;;;5.80;94479.00;;;;5113255;28;20198;-61
2022/09/29 01:57:18;;;;;;;0.70;0.70;;;;;5.90;94464.00;;;;5095448;28;20192;-61
2022/09/29 01:59:48;;;;;;;0.83;0.83;;;;;5.90;94463.00;;;;5113054;28;20613;-61
2022/09/29 02:02:20;;;;;;;0.83;0.83;;;;;5.80;94477.00;;;;5112222;28;20288;-61
2022/09/29 02:04:51;;;;;;;0.80;0.80;;;;;5.60;94467.00;;;;5113129;28;20244;-61
2022/09/29 02:07:24;;;;;;;0.70;0.70;;;;;5.70;94472.00;;;;5113163;28;20235;-62
2022/09/29 02:09:56;;;;;;;0.70;0.70;;;;;5.80;94468.00;;;;5113153;28;20194;-62
2022/09/29 02:12:28;;;;;;;0.83;0.83;;;;;5.90;94467.00;;;;5113156;28;20197;-61
2022/09/29 02:14:56;;;;;;;0.80;0.80;;;;;5.90;94475.00;;;;5095064;28;20260;-62
2022/09/29 02:17:29;;;;;;;1.27;1.23;;;;;6.00;94459.00;;;;5095061;28;20288;-61
2022/09/29 02:19:56;;;;;;;1.93;0.90;;;;;6.00;94462.00;;;;5112914;28;20297;-61
2022/09/29 02:22:25;;;;;;;0.90;0.90;;;;;6.00;94463.00;;;;5112905;28;20213;-62
2022/09/29 02:24:57;;;;;;;0.70;0.70;;;;;6.00;94467.00;;;;5094869;28;20194;-61
2022/09/29 02:27:25;;;;;;;0.60;0.60;;;;;6.00;94468.00;;;;5112828;28;20696;-62
2022/09/29 02:29:55;;;;;;;0.70;0.70;;;;;5.90;94459.00;;;;5114317;28;20602;-61
2022/09/29 02:32:23;;;;;;;0.93;0.93;;;;;6.00;94468.00;;;;5116510;28;20199;-61
2022/09/29 02:34:51;;;;;;;0.60;0.60;;;;;5.90;94458.00;;;;5116527;28;20221;-62
2022/09/29 02:37:32;;;;;;;0.70;0.70;;;;;6.00;94464.00;;;;5098447;28;20606;-61
2022/09/29 02:40:09;;;;;;;0.80;0.80;;;;;6.00;94465.00;;;;5116246;28;20751;-62
2022/09/29 02:42:46;;;;;;;1.10;1.10;;;;;6.10;94457.00;;;;5116290;28;20178;-61
2022/09/29 02:45:28;;;;;;;0.90;0.90;;;;;6.10;94461.00;;;;5116304;28;20220;-61
2022/09/29 02:48:22;;;;;;;0.60;0.60;;;;;6.20;94452.00;;;;5098400;28;20210;-62
2022/09/29 02:51:00;;;;;;;0.70;0.70;;;;;6.20;94447.00;;;;5094862;28;20213;-61
2022/09/29 02:53:45;;;;;;;0.50;0.50;;;;;6.20;94455.00;;;;5116206;28;20201;-61
2022/09/29 02:56:22;;;;;;;1.17;1.17;;;;;6.30;94450.00;;;;5116046;28;20237;-62
2022/09/29 02:58:56;;;;;;;0.80;0.80;;;;;6.30;94442.00;;;;5116036;28;20224;-60
2022/09/29 03:01:23;;;;;;;0.77;0.77;;;;;6.30;94446.00;;;;5098171;28;20221;-62
2022/09/29 03:03:51;;;;;;;0.80;0.80;;;;;6.30;94441.00;;;;5115960;28;20279;-61
2022/09/29 03:06:20;;;;;;;0.50;0.50;;;;;6.30;94433.00;;;;5115772;28;20217;-63
2022/09/29 03:08:47;;;;;;;0.60;0.60;;;;;6.20;94436.00;;;;5097820;28;20209;-61
2022/09/29 03:11:13;;;;;;;0.90;0.90;;;;;6.10;94446.00;;;;5115835;28;20626;-61
2022/09/29 03:13:40;;;;;;;0.80;0.80;;;;;6.00;94440.00;;;;5097746;28;20209;-60
2022/09/29 03:16:07;;;;;;;0.90;0.90;;;;;6.00;94433.00;;;;5097741;28;20208;-61
2022/09/29 03:18:34;;;;;;;0.77;0.77;;;;;5.90;94433.00;;;;5115530;28;20230;-61
2022/09/29 03:21:02;;;;;;;0.60;0.60;;;;;5.70;94433.00;;;;5115687;28;20197;-61
2022/09/29 03:23:28;;;;;;;0.77;0.77;;;;;5.60;94425.00;;;;5115631;28;20239;-61
2022/09/29 03:25:55;;;;;;;4.90;2.13;;;;;5.70;94427.00;;;;5115630;28;20527;-61
2022/09/29 03:28:22;;;;;;;0.80;0.80;;;;;5.70;94432.00;;;;5097648;28;20211;-61
2022/09/29 03:30:49;;;;;;;0.60;0.60;;;;;5.80;94433.00;;;;5115599;28;20213;-64
2022/09/29 03:33:17;;;;;;;1.07;1.00;;;;;5.80;94434.00;;;;5115544;28;20225;-62
2022/09/29 03:35:44;;;;;;;0.77;0.77;;;;;5.60;94383.00;;;;5115460;28;20193;-62
2022/09/29 03:38:11;;;;;;;0.80;0.80;;;;;5.50;94424.00;;;;5115314;28;20201;-62
2022/09/29 03:40:40;;;;;;;0.90;0.90;;;;;5.60;94428.00;;;;5114984;28;20219;-62
2022/09/29 03:43:07;;;;;;;0.80;0.80;;;;;5.50;94427.00;;;;5115394;28;20196;-61
2022/09/29 03:45:34;;;;;;;0.77;0.77;;;;;5.50;94420.00;;;;5115248;28;20299;-61
2022/09/29 03:48:01;;;;;;;0.90;0.90;;;;;5.50;94418.00;;;;5097269;28;20201;-61
2022/09/29 03:50:30;;;;;;;0.73;0.73;;;;;5.60;94422.00;;;;5115133;28;20222;-59
2022/09/29 03:52:57;;;;;;;1.27;1.23;;;;;5.60;94433.00;;;;5097150;28;20198;-62
2022/09/29 03:55:24;;;;;;;0.70;0.70;;;;;5.40;94421.00;;;;5115315;28;20281;-62
2022/09/29 03:57:53;;;;;;;0.50;0.50;;;;;5.60;94429.00;;;;5114996;28;20291;-61
2022/09/29 04:00:20;;;;;;;0.70;0.70;;;;;5.50;94426.00;;;;5115037;28;20224;-62
2022/09/29 04:02:46;;;;;;;0.87;0.87;;;;;5.50;94432.00;;;;5114896;28;20220;-61
2022/09/29 04:05:13;;;;;;;0.80;0.80;;;;;5.50;94417.00;;;;5114980;28;20207;-61
2022/09/29 04:07:40;;;;;;;1.03;1.00;;;;;5.50;94425.00;;;;5096923;28;20372;-61
2022/09/29 04:10:08;;;;;;;1.63;1.53;;;;;5.50;94428.00;;;;5114930;28;20212;-61
2022/09/29 04:12:35;;;;;;;0.80;0.80;;;;;5.50;94432.00;;;;5114783;28;20192;-62
2022/09/29 04:15:02;;;;;;;0.80;0.80;;;;;5.40;94428.00;;;;5096799;28;20202;-62
2022/09/29 04:17:29;;;;;;;2.37;1.20;;;;;5.50;94425.00;;;;5114764;28;20211;-62
2022/09/29 04:19:56;;;;;;;0.70;0.70;;;;;5.50;94428.00;;;;5096786;28;20242;-61
2022/09/29 04:22:23;;;;;;;3.10;1.10;;;;;5.50;94432.00;;;;5114714;28;20213;-62
2022/09/29 04:24:50;;;;;;;0.87;0.87;;;;;5.60;94428.00;;;;5114622;28;20228;-60
2022/09/29 04:27:18;;;;;;;0.70;0.70;;;;;5.60;94419.00;;;;5114634;28;20368;-61
2022/09/29 04:29:45;;;;;;;0.83;0.83;;;;;5.50;94432.00;;;;5114688;28;20190;-61
2022/09/29 04:32:12;;;;;;;0.60;0.60;;;;;5.40;94434.00;;;;5096616;28;20693;-61
2022/09/29 04:34:41;;;;;;;0.70;0.70;;;;;5.40;94439.00;;;;5114498;28;20208;-60
2022/09/29 04:37:10;;;;;;;0.73;0.73;;;;;5.20;94435.00;;;;5114459;28;20194;-61
2022/09/29 04:39:37;;;;;;;0.80;0.80;;;;;5.20;94437.00;;;;5114289;28;20401;-62
2022/09/29 04:42:06;;;;;;;0.73;0.73;;;;;5.30;94447.00;;;;5096318;28;20208;-61
2022/09/29 04:44:32;;;;;;;0.80;0.80;;;;;5.20;94426.00;;;;5114412;28;20201;-60
2022/09/29 04:47:00;;;;;;;0.83;0.83;;;;;5.10;94427.00;;;;5096536;28;20202;-62
2022/09/29 04:49:27;;;;;;;1.07;1.07;;;;;5.10;94428.00;;;;5114350;28;20202;-59
2022/09/29 04:51:53;;;;;;;0.60;0.60;;;;;5.10;94439.00;;;;5113702;28;20242;-61
2022/09/29 04:54:20;;;;;;;0.80;0.80;;;;;5.10;94435.00;;;;5114101;28;20201;-61
2022/09/29 04:56:48;;;;;;;0.97;0.97;;;;;5.00;94442.00;;;;5114049;28;20224;-61
2022/09/29 04:59:17;;;;;;;0.87;0.87;;;;;4.90;94442.00;;;;5114135;28;20303;-64
2022/09/29 05:01:44;;;;;;;0.93;0.93;;;;;4.90;94446.00;;;;5096037;28;20222;-62
2022/09/29 05:04:12;;;;;;;0.60;0.60;;;;;4.90;94441.00;;;;5114115;28;20194;-62
2022/09/29 05:06:39;;;;;;;0.70;0.70;;;;;4.90;94440.00;;;;5096201;28;20581;-62
2022/09/29 05:09:06;;;;;;;1.07;1.07;;;;;5.00;94434.00;;;;5114070;28;20207;-62
2022/09/29 05:11:33;;;;;;;0.73;0.73;;;;;4.80;94442.00;;;;5113860;28;20548;-61
2022/09/29 05:14:00;;;;;;;0.63;0.63;;;;;4.80;94443.00;;;;5113965;28;20637;-61
2022/09/29 05:16:27;;;;;;;0.80;0.80;;;;;4.80;94436.00;;;;5113812;28;20229;-61
2022/09/29 05:18:54;;;;;;;0.80;0.80;;;;;4.90;94445.00;;;;5113803;28;20217;-61
2022/09/29 05:21:22;;;;;;;0.87;0.87;;;;;5.00;94459.00;;;;5113798;28;20220;-61
2022/09/29 05:23:48;;;;;;;0.70;0.70;;;;;5.00;94457.00;;;;5113812;28;20190;-62
2022/09/29 05:26:15;;;;;;;0.70;0.70;;;;;5.00;94465.00;;;;5113847;28;20624;-62
2022/09/29 05:28:44;;;;;;;1.40;1.30;;;;;5.00;94453.00;;;;5113649;28;20210;-63
2022/09/29 05:31:12;;;;;;;0.57;0.57;;;;;5.00;94460.00;;;;5095477;28;20283;-62
2022/09/29 05:33:39;;;;;;;0.73;0.73;;;;;5.00;94453.00;;;;5095404;28;20235;-61
2022/09/29 05:36:08;;;;;;;0.60;0.60;;;;;5.00;94454.00;;;;5113541;28;20304;-61
2022/09/29 05:38:36;;;;;;;0.60;0.60;;;;;4.90;94460.00;;;;5113533;28;20219;-61
2022/09/29 05:41:04;;;;;;;0.73;0.73;;;;;5.00;94470.00;;;;5113482;28;20184;-61
2022/09/29 05:43:31;;;;;;;0.50;0.50;;;;;4.90;94461.00;;;;5095486;28;20205;-61
2022/09/29 05:46:00;;;;;;;0.80;0.80;;;;;4.80;94460.00;;;;5113502;28;20216;-61
2022/09/29 05:48:29;;;;;;;0.60;0.60;;;;;4.80;94448.00;;;;5095553;28;20207;-62
2022/09/29 05:50:56;;;;;;;0.90;0.90;;;;;4.90;94460.00;;;;5113391;28;20388;-61
2022/09/29 05:53:23;;;;;;;0.60;0.60;;;;;4.90;94465.00;;;;5113335;28;20212;-62
2022/09/29 05:55:51;;;;;;;0.60;0.60;;;;;5.00;94458.00;;;;5112519;28;20219;-62
2022/09/29 05:58:18;;;;;;;0.70;0.70;;;;;4.90;94468.00;;;;5095270;28;20623;-62
2022/09/29 06:00:45;;;;;;;0.77;0.77;;;;;4.90;94476.00;;;;5113219;28;20202;-62
2022/09/29 06:03:12;;;;;;;1.07;1.07;;;;;4.90;94476.00;;;;5113537;28;20204;-61
2022/09/29 06:05:39;;;;;;;0.80;0.80;;;;;5.00;94475.00;;;;5116810;28;20198;-62
2022/09/29 06:08:06;;;;;;;0.60;0.60;;;;;5.10;94477.00;;;;5116876;28;20194;-59
2022/09/29 06:10:34;;;;;;;0.60;0.60;;;;;5.10;94484.00;;;;5116707;28;20282;-59
2022/09/29 06:13:02;;;;;;;0.60;0.60;;;;;5.20;94489.00;;;;5116721;28;20215;-59
2022/09/29 06:15:29;;;;;;;1.20;1.20;;;;;5.30;94486.00;;;;5116739;28;20201;-62
2022/09/29 06:17:56;;;;;;;0.67;0.67;;;;;5.30;94494.00;;;;5116529;28;20217;-62
2022/09/29 06:20:23;;;;;;;0.70;0.70;;;;;5.40;94499.00;;;;5116594;28;20677;-62
2022/09/29 06:22:52;;;;;;;0.80;0.80;;;;;5.40;94495.00;;;;5116440;28;20229;-61
2022/09/29 06:25:19;;;;;;;0.53;0.53;;;;;5.50;94489.00;;;;5116494;28;20302;-62
2022/09/29 06:27:46;;;;;;;0.53;0.53;;;;;5.50;94491.00;;;;5116474;28;20210;-62
2022/09/29 06:30:14;;;;;;;0.70;0.70;;;;;5.60;94490.00;;;;5116482;28;20190;-62
2022/09/29 06:32:41;;;;;;;0.83;0.83;;;;;5.70;94489.00;;;;5116359;28;20304;-59
2022/09/29 06:37:55;;;;;;;0.53;0.53;;;;;5.80;94495.00;;;;5116269;28;20223;-57
2022/09/29 06:40:26;;;;;;;0.80;0.80;;;;;5.80;94488.00;;;;5116198;28;20218;-57
2022/09/29 06:42:53;;;;;;;0.90;0.90;;;;;5.80;94486.00;;;;5116126;28;20520;-57
2022/09/29 06:45:21;;;;;;;0.80;0.80;;;;;5.90;94488.00;;;;5116241;28;20205;-57
2022/09/29 06:47:47;;;;;;;0.90;0.90;;;;;6.00;94490.00;;;;5116118;28;20633;-57
2022/09/29 06:50:14;;;;;;;0.60;0.60;;;;;6.00;94496.00;;;;5098061;28;20221;-57
2022/09/29 06:52:41;;;;;;;0.60;0.60;;;;;6.00;94489.00;;;;5116119;28;20205;-61
2022/09/29 06:55:08;;;;;;;0.83;0.83;;;;;6.10;94498.00;;;;5098021;28;20278;-62
2022/09/29 06:57:37;;;;;;;0.80;0.80;;;;;6.00;94499.00;;;;5116091;28;20194;-62
2022/09/29 07:00:07;;;;;;;0.63;0.63;;;;;6.00;94497.00;;;;5115883;28;20220;-62
2022/09/29 07:02:35;;;;;;;1.10;0.87;;;;;6.00;94489.00;;;;5115979;28;20201;-62
2022/09/29 07:05:01;;;;;;;0.60;0.60;;;;;6.10;94500.00;;;;5115945;28;20701;-62
2022/09/29 07:07:28;;;;;;;0.80;0.80;;;;;6.20;94495.00;;;;5115882;28;20230;-62
2022/09/29 07:09:55;;;;;;;0.77;0.77;;;;;6.20;94498.00;;;;5115782;28;20634;-62
2022/09/29 07:12:23;;;;;;;0.73;0.73;;;;;6.30;94487.00;;;;5115676;28;20218;-61
2022/09/29 07:14:50;;;;;;;1.40;1.30;;;;;6.40;94493.00;;;;5115287;28;20667;-62
2022/09/29 07:17:16;;;;;;;0.80;0.80;;;;;6.40;94490.00;;;;5115530;28;20571;-62
2022/09/29 07:19:46;;;;;;;0.87;0.87;;;;;6.50;94487.00;;;;5115559;28;20213;-62
2022/09/29 07:22:13;;;;;;;0.70;0.70;;;;;6.60;94496.00;;;;5115627;28;20624;-64
2022/09/29 07:24:42;;;;;;;0.80;0.80;;;;;6.70;94492.00;;;;5115661;28;20760;-62
2022/09/29 07:27:10;;;;;;;1.07;1.07;;;;;6.80;94494.00;;;;5115423;28;20282;-60
2022/09/29 07:29:37;;;;;;;0.67;0.67;;;;;6.70;94494.00;;;;5115440;28;20305;-62
2022/09/29 07:32:04;;;;;;;0.80;0.80;;;;;6.80;94498.00;;;;5115465;28;20217;-62
2022/09/29 07:34:31;;;;;;;1.03;1.03;;;;;6.80;94499.00;;;;5115424;28;20297;-62
2022/09/29 07:36:58;;;;;;;0.60;0.60;;;;;6.60;94500.00;;;;5115502;28;20194;-62
2022/09/29 07:39:25;;;;;;;2.33;1.13;;;;;6.70;94497.00;;;;5115310;28;20589;-62
2022/09/29 07:41:53;;;;;;;0.80;0.80;;;;;6.70;94501.00;;;;5115257;28;20218;-62
2022/09/29 07:44:20;;;;;;;0.60;0.60;;;;;6.90;94493.00;;;;5115292;28;20215;-60
2022/09/29 07:46:50;;;;;;;0.60;0.60;;;;;6.90;94502.00;;;;5097142;28;20285;-62
2022/09/29 07:49:17;;;;;;;0.70;0.70;;;;;7.00;94501.00;;;;5115273;28;20217;-62
2022/09/29 07:51:43;;;;;;;1.00;0.97;;;;;7.20;94499.00;;;;5115105;28;20194;-62
2022/09/29 07:54:11;;;;;;;0.60;0.60;;;;;7.30;94500.00;;;;5115050;28;20216;-62
2022/09/29 07:56:38;;;;;;;0.70;0.70;;;;;7.30;94498.00;;;;5115250;28;20230;-62
2022/09/29 07:59:04;;;;;;;0.83;0.83;;;;;7.30;94501.00;;;;5114945;28;20668;-62
2022/09/29 08:01:32;;;;;;;0.73;0.73;;;;;7.40;94508.00;;;;5115052;28;20660;-62
2022/09/29 08:03:59;;;;;;;0.97;0.97;;;;;7.50;94502.00;;;;5096980;28;20229;-62
2022/09/29 08:06:27;;;;;;;0.83;0.83;;;;;7.60;94508.00;;;;5114914;28;20637;-62
2022/09/29 08:08:54;;;;;;;0.77;0.77;;;;;7.70;94501.00;;;;5114954;28;20198;-62
2022/09/29 08:11:22;;;;;;;0.70;0.70;;;;;7.80;94509.00;;;;5097201;28;20289;-62
2022/09/29 08:13:51;;;;;;;0.63;0.63;;;;;7.90;94518.00;;;;5114745;28;20210;-62
2022/09/29 08:16:18;;;;;;;0.80;0.80;;;;;7.90;94513.00;;;;5114848;28;20254;-62
2022/09/29 08:18:45;;;;;;;1.50;1.13;;;;;8.00;94514.00;;;;5114727;28;20290;-62
2022/09/29 08:21:14;;;;;;;0.90;0.90;;;;;8.10;94517.00;;;;5114706;28;20221;-62
2022/09/29 08:23:42;;;;;;;1.10;1.10;;;;;8.20;94509.00;;;;5114695;28;20205;-61
2022/09/29 08:26:11;;;;;;;0.60;0.60;;;;;8.40;94516.00;;;;5114308;28;20196;-61
2022/09/29 08:28:39;;;;;;;0.70;0.70;;;;;8.40;94522.00;;;;5113388;28;20208;-62
2022/09/29 08:31:07;;;;;;;0.80;0.80;;;;;8.50;94526.00;;;;5096446;28;20194;-62
2022/09/29 08:33:35;;;;;;;1.37;1.27;;;;;8.50;94524.00;;;;5114261;28;20218;-61
2022/09/29 08:36:13;;;;;;;0.60;0.60;;;;;8.70;94538.00;;;;5096562;28;20246;-63
2022/09/29 08:38:42;;;;;;;0.90;0.90;;;;;8.70;94530.00;;;;5114241;28;20822;-61
2022/09/29 08:41:24;;;;;;;0.90;0.90;;;;;8.80;94535.00;;;;5114304;28;20218;-60
2022/09/29 08:43:56;;;;;;;0.80;0.80;;;;;8.80;94532.00;;;;5096144;28;20203;-60
2022/09/29 08:46:27;;;;;;;1.20;0.67;;;;;9.00;94543.00;;;;5114366;28;20224;-62
2022/09/29 08:48:59;;;;;;;0.80;0.80;;;;;8.90;94544.00;;;;5114461;28;20247;-60
2022/09/29 08:51:31;;;;;;;0.73;0.73;;;;;9.20;94540.00;;;;5114343;28;20494;-63
2022/09/29 08:54:05;;;;;;;0.80;0.80;;;;;9.50;94547.00;;;;5096262;28;20530;-62
2022/09/29 08:56:33;;;;;;;0.67;0.67;;;;;9.60;94544.00;;;;5114199;28;20250;-62
2022/09/29 08:59:01;;;;;;;0.77;0.77;;;;;9.50;94544.00;;;;5114202;28;20214;-63
2022/09/29 09:01:34;;;;;;;0.97;0.97;;;;;9.70;94545.00;;;;5096207;28;20260;-62
2022/09/29 09:04:22;;;;;;;0.57;0.57;;;;;10.00;94551.00;;;;5113948;28;20281;-62
2022/09/29 09:07:04;;;;;;;0.90;0.90;;;;;9.90;94551.00;;;;5094415;28;20210;-62
2022/09/29 09:09:55;;;;;;;1.00;1.00;;;;;9.80;94556.00;;;;5113831;28;20206;-61
2022/09/29 09:12:46;;;;;;;0.60;0.60;;;;;10.00;94563.00;;;;5113911;28;20198;-62
2022/09/29 09:15:38;;;;;;;0.80;0.80;;;;;10.20;94555.00;;;;5113899;28;20359;-62
2022/09/29 09:18:29;;;;;;;1.10;1.00;;;;;10.10;94567.00;;;;5113481;28;20225;-62
2022/09/29 09:21:05;;;;;;;0.60;0.60;;;;;10.10;94572.00;;;;5113662;28;20217;-62
2022/09/29 09:23:40;;;;;;;0.50;0.50;;;;;9.90;94574.00;;;;5113583;28;20205;-61
2022/09/29 09:26:09;;;;;;;0.70;0.70;;;;;9.90;94581.00;;;;5113640;28;20209;-61
2022/09/29 09:28:40;;;;;;;0.60;0.60;;;;;9.90;94582.00;;;;5113590;28;20201;-63
2022/09/29 09:31:15;;;;;;;1.83;1.50;;;;;9.80;94584.00;;;;5113527;28;20269;-61
2022/09/29 09:33:46;;;;;;;0.60;0.60;;;;;9.90;94582.00;;;;5095693;28;20288;-61
2022/09/29 09:36:21;;;;;;;1.00;1.00;;;;;9.90;94579.00;;;;5113574;28;20253;-63
2022/09/29 09:38:52;;;;;;;0.90;0.90;;;;;10.00;94575.00;;;;5113063;28;20276;-63
2022/09/29 09:41:23;;;;;;;0.70;0.70;;;;;10.30;94568.00;;;;5113679;28;20194;-62
2022/09/29 09:43:55;;;;;;;0.50;0.50;;;;;10.40;94568.00;;;;5113430;28;20202;-62
2022/09/29 09:46:32;;;;;;;0.83;0.83;;;;;10.70;94569.00;;;;5113353;28;20190;-62
2022/09/29 09:49:05;;;;;;;1.57;1.47;;;;;10.90;94572.00;;;;5113313;28;20332;-61
2022/09/29 09:51:45;;;;;;;1.03;0.87;;;;;11.00;94566.00;;;;5113410;28;20208;-62
2022/09/29 09:54:19;;;;;;;0.70;0.70;;;;;10.90;94562.00;;;;5095279;28;20281;-62
2022/09/29 09:57:06;;;;;;;2.13;1.93;;;;;11.00;94563.00;;;;5113216;28;20653;-62
2022/09/29 09:59:44;;;;;;;1.07;1.07;;;;;11.20;94569.00;;;;5113070;28;20222;-59
2022/09/29 10:02:18;;;;;;;0.70;0.70;;;;;11.20;94565.00;;;;5113292;28;20198;-62
2022/09/29 10:04:47;;;;;;;0.70;0.70;;;;;11.30;94563.00;;;;5113271;28;20190;-63
2022/09/29 10:07:14;;;;;;;1.47;1.37;;;;;11.60;94565.00;;;;5095317;28;20608;-63
2022/09/29 10:09:40;;;;;;;0.53;0.53;;;;;11.50;94565.00;;;;5113249;28;20194;-62
2022/09/29 10:12:11;;;;;;;0.77;0.77;;;;;11.70;94567.00;;;;5095074;28;20232;-62
2022/09/29 10:14:45;;;;;;;0.80;0.80;;;;;11.80;94566.00;;;;5095060;28;20222;-62
2022/09/29 10:17:16;;;;;;;0.50;0.50;;;;;11.60;94566.00;;;;5094847;28;20236;-62
2022/09/29 10:19:55;;;;;;;1.23;1.10;;;;;11.60;94569.00;;;;5112937;28;20432;-62
2022/09/29 10:22:22;;;;;;;0.50;0.50;;;;;11.70;94572.00;;;;5112873;28;20190;-62
2022/09/29 10:24:51;;;;;;;3.93;0.70;;;;;11.70;94567.00;;;;5112964;28;20232;-60
2022/09/29 10:27:24;;;;;;;0.87;0.87;;;;;11.60;94564.00;;;;5112930;28;20209;-62
2022/09/29 10:29:53;;;;;;;0.53;0.53;;;;;11.60;94565.00;;;;5112997;28;20213;-62
2022/09/29 10:32:35;;;;;;;0.57;0.57;;;;;11.50;94564.00;;;;5094990;28;20221;-62
2022/09/29 10:35:07;;;;;;;0.43;0.43;;;;;11.30;94565.00;;;;5112807;28;20343;-61
2022/09/29 10:37:36;;;;;;;0.53;0.53;;;;;11.30;94570.00;;;;5112716;28;20175;-62
2022/09/29 10:40:16;;;;;;;0.67;0.67;;;;;11.30;94569.00;;;;5094349;28;20531;-62
2022/09/29 10:42:45;;;;;;;0.50;0.50;;;;;11.60;94570.00;;;;5112784;28;20670;-62
2022/09/29 10:45:14;;;;;;;0.50;0.50;;;;;11.60;94565.00;;;;5094566;28;20206;-62
2022/09/29 10:47:44;;;;;;;0.40;0.40;;;;;12.00;94561.00;;;;5112579;28;20613;-64
2022/09/29 10:50:17;;;;;;;0.60;0.60;;;;;12.10;94562.00;;;;5112936;28;20208;-62
2022/09/29 10:52:48;;;;;;;0.50;0.50;;;;;12.40;94561.00;;;;5116097;28;20198;-62
2022/09/29 10:55:18;;;;;;;0.40;0.40;;;;;12.50;94575.00;;;;5116080;28;20190;-62
2022/09/29 10:57:46;;;;;;;0.50;0.50;;;;;12.70;94569.00;;;;5116095;28;20548;-61
2022/09/29 11:00:26;;;;;;;0.67;0.67;;;;;12.80;94570.00;;;;5116039;28;20218;-62
2022/09/29 11:03:03;;;;;;;0.90;0.90;;;;;12.80;94572.00;;;;5116003;28;20226;-63
2022/09/29 11:05:31;;;;;;;0.40;0.40;;;;;12.80;94569.00;;;;5116154;28;20384;-63
2022/09/29 11:07:58;;;;;;;0.50;0.50;;;;;13.00;94578.00;;;;5116123;28;20236;-66
2022/09/29 11:10:29;;;;;;;0.50;0.50;;;;;13.10;94575.00;;;;5116202;28;20304;-66
2022/09/29 11:12:57;;;;;;;0.50;0.50;;;;;13.20;94575.00;;;;5116031;28;20286;-67
2022/09/29 11:15:27;;;;;;;1.13;1.13;;;;;13.10;94573.00;;;;5115887;28;20217;-60
2022/09/29 11:17:55;;;;;;;0.60;0.60;;;;;13.20;94581.00;;;;5115668;28;20215;-64
2022/09/29 11:20:33;;;;;;;0.50;0.50;;;;;13.50;94581.00;;;;5115608;28;20217;-63
2022/09/29 11:23:21;;;;;;;0.50;0.50;;;;;13.70;94582.00;;;;5115791;28;20206;-64
2022/09/29 11:26:16;;;;;;;0.70;0.70;;;;;13.60;94586.00;;;;5115165;28;20205;-65
2022/09/29 11:29:03;;;;;;;0.50;0.50;;;;;13.80;94544.00;;;;5115674;28;20277;-65
2022/09/29 11:31:44;;;;;;;0.50;0.50;;;;;13.70;94583.00;;;;5115888;28;20183;-65
2022/09/29 11:34:50;;;;;;;0.50;0.50;;;;;13.50;94587.00;;;;5115710;28;20266;-64
2022/09/29 11:37:32;;;;;;;0.53;0.53;;;;;13.50;94586.00;;;;5115742;28;20205;-62
2022/09/29 11:40:10;;;;;;;0.60;0.60;;;;;12.70;94589.00;;;;5118592;28;20663;-63
2022/09/29 11:42:51;;;;;;;0.87;0.70;;;;;12.80;94595.00;;;;5116412;28;20649;-64
2022/09/29 11:45:27;;;;;;;0.60;0.60;;;;;12.70;94590.00;;;;5115407;28;20249;-62
2022/09/29 11:48:38;;;;;;;0.60;0.60;;;;;12.70;94597.00;;;;5115370;28;20622;-63
2022/09/29 11:51:16;;;;;;;0.60;0.60;;;;;13.00;94596.00;;;;5115340;28;20254;-61
2022/09/29 11:54:17;;;;;;;0.60;0.60;;;;;12.70;94595.00;;;;5115249;28;20240;-62
2022/09/29 11:56:50;;;;;;;0.50;0.50;;;;;12.80;94603.00;;;;5115235;28;20217;-62
2022/09/29 11:59:36;;;;;;;0.57;0.57;;;;;12.30;94600.00;;;;5115006;28;20297;-62
2022/09/29 12:02:26;;;;;;;0.80;0.80;;;;;12.60;94602.00;;;;5096830;28;20224;-60
2022/09/29 12:05:00;;;;;;;0.57;0.57;;;;;12.40;94588.00;;;;5115060;28;20194;-61
2022/09/29 12:07:41;;;;;;;0.50;0.50;;;;;12.60;94593.00;;;;5114871;28;20307;-60
2022/09/29 12:10:35;;;;;;;0.60;0.60;;;;;12.80;94597.00;;;;5115004;28;20202;-61
2022/09/29 12:13:19;;;;;;;0.60;0.60;;;;;13.00;94597.00;;;;5109955;28;20276;-62
2022/09/29 12:15:54;;;;;;;1.63;1.53;;;;;13.00;94589.00;;;;5114946;28;20190;-62
2022/09/29 12:18:26;;;;;;;0.70;0.70;;;;;13.40;94590.00;;;;5114750;28;20217;-61
2022/09/29 12:20:53;;;;;;;0.40;0.40;;;;;13.50;94588.00;;;;5114755;28;20282;-61
2022/09/29 12:23:25;;;;;;;0.50;0.50;;;;;13.40;94584.00;;;;5096749;28;20190;-61
2022/09/29 12:25:57;;;;;;;0.63;0.63;;;;;13.80;94589.00;;;;5114776;28;20193;-60
2022/09/29 12:28:29;;;;;;;0.87;0.87;;;;;14.00;94587.00;;;;5114695;28;20205;-61
2022/09/29 12:31:01;;;;;;;0.50;0.50;;;;;13.80;94585.00;;;;5114594;28;20557;-61
2022/09/29 12:33:32;;;;;;;0.70;0.70;;;;;13.60;94590.00;;;;5114652;28;20194;-61
2022/09/29 12:36:42;;;;;;;0.50;0.50;;;;;13.50;94587.00;;;;5114534;28;20214;-61
2022/09/29 12:39:03;;;;;;;0.40;0.40;;;;;13.50;94593.00;;;;5114348;28;20641;-62
2022/09/29 12:41:35;;;;;;;0.50;0.50;;;;;13.50;94590.00;;;;5114475;28;20228;-62
2022/09/29 12:44:11;;;;;;;0.70;0.70;;;;;13.30;94601.00;;;;5114456;28;20228;-62
2022/09/29 12:46:45;;;;;;;0.53;0.53;;;;;13.40;94601.00;;;;5114542;28;20330;-62